Time;durP1;ratioP1;P1;durP2;ratioP2;P2;SDS_P1;SDS_P2;PMS_P1;PMS_P2;Temp;Humidity;BMP_temperature;BMP_pressure;BME280_temperature;BME280_humidity;BME280_pressure;Samples;Min_cycle;Max_cycle;Signal;HPM_P1;HPM_P2
2023/06/03 00:02:17;;;;;;;3.30;1.65;;;19.10;41.20;;;;;;2382044;57;21119;-70
2023/06/03 00:04:43;;;;;;;4.12;1.55;;;19.10;41.30;;;;;;2172470;58;21724;-68
2023/06/03 00:07:10;;;;;;;3.15;1.75;;;19.00;41.40;;;;;;2163199;58;21966;-69
2023/06/03 00:09:36;;;;;;;2.72;1.60;;;19.00;41.40;;;;;;2171889;58;20971;-68
2023/06/03 00:12:05;;;;;;;2.62;1.40;;;19.00;41.40;;;;;;2383206;57;20952;-70
2023/06/03 00:14:32;;;;;;;2.50;1.30;;;18.90;41.40;;;;;;2171974;59;20951;-69
2023/06/03 00:17:02;;;;;;;2.90;1.50;;;18.90;41.40;;;;;;2382251;57;21046;-67
2023/06/03 00:19:28;;;;;;;4.85;1.48;;;18.90;41.60;;;;;;2171985;58;20983;-69
2023/06/03 00:21:55;;;;;;;2.83;1.42;;;18.80;41.50;;;;;;2172878;58;20975;-71
2023/06/03 00:24:22;;;;;;;3.17;1.27;;;18.80;41.60;;;;;;2170744;58;20978;-69
2023/06/03 00:26:50;;;;;;;3.33;1.55;;;18.70;41.60;;;;;;2171182;59;21447;-68
2023/06/03 00:29:19;;;;;;;4.10;1.52;;;18.70;41.60;;;;;;2171916;59;21769;-72
2023/06/03 00:31:45;;;;;;;2.45;1.30;;;18.60;41.70;;;;;;2165406;58;21021;-70
2023/06/03 00:34:12;;;;;;;4.85;1.75;;;18.60;41.80;;;;;;2382569;57;21381;-69
2023/06/03 00:36:39;;;;;;;4.35;2.12;;;18.60;42.00;;;;;;2381082;57;20995;-69
2023/06/03 00:39:05;;;;;;;3.37;2.00;;;18.50;42.10;;;;;;2172007;58;21093;-69
2023/06/03 00:41:32;;;;;;;2.65;1.35;;;18.50;42.20;;;;;;2164459;59;21021;-68
2023/06/03 00:43:59;;;;;;;4.03;1.87;;;18.40;42.10;;;;;;2369266;58;21117;-68
2023/06/03 00:46:25;;;;;;;3.22;1.73;;;18.40;42.20;;;;;;2162930;59;21689;-71
2023/06/03 00:48:51;;;;;;;4.30;1.70;;;18.40;42.30;;;;;;2164972;58;21089;-69
2023/06/03 00:51:20;;;;;;;5.20;1.90;;;18.30;42.20;;;;;;2172780;58;21023;-71
2023/06/03 00:53:47;;;;;;;2.50;1.50;;;18.30;42.40;;;;;;2371473;57;21526;-68
2023/06/03 00:56:16;;;;;;;2.33;1.23;;;18.30;42.50;;;;;;2366678;58;20993;-68
2023/06/03 00:58:43;;;;;;;3.67;1.52;;;18.20;42.40;;;;;;2176045;58;20975;-71
2023/06/03 01:01:12;;;;;;;3.45;1.40;;;18.20;42.40;;;;;;2397301;57;20958;-69
2023/06/03 01:03:47;;;;;;;2.90;1.45;;;18.20;42.50;;;;;;2199640;59;21009;-71
2023/06/03 01:06:28;;;;;;;3.40;1.40;;;18.10;42.60;;;;;;2415703;57;20986;-69
2023/06/03 01:09:13;;;;;;;3.05;1.42;;;18.10;42.70;;;;;;2200307;58;21121;-71
2023/06/03 01:14:54;;;;;;;3.25;1.65;;;18.10;42.70;;;;;;2412774;57;20990;-70
2023/06/03 01:17:21;;;;;;;2.70;1.35;;;18.00;43.30;;;;;;2177910;59;21889;-68
2023/06/03 01:20:03;;;;;;;2.97;1.52;;;18.00;42.50;;;;;;2179633;58;21057;-68
2023/06/03 01:23:13;;;;;;;3.72;1.67;;;17.90;42.70;;;;;;2179244;58;21513;-71
2023/06/03 01:26:34;;;;;;;3.03;1.50;;;17.90;42.90;;;;;;2179501;59;21022;-68
2023/06/03 01:29:55;;;;;;;2.60;1.17;;;17.80;42.80;;;;;;2148627;59;21037;-68
2023/06/03 01:32:43;;;;;;;2.95;1.40;;;17.80;42.70;;;;;;2136433;58;21003;-68
2023/06/03 01:36:36;;;;;;;2.87;1.40;;;17.70;43.00;;;;;;2363527;58;21010;-68
2023/06/03 01:40:40;;;;;;;2.72;1.30;;;17.70;43.20;;;;;;2338895;58;21017;-68
2023/06/03 02:10:41;;;;;;;;;;;;;;;;;;;;;
2023/06/03 03:56:05;;;;;;;;;;;;;;;;;;;;;
2023/06/03 04:41:40;;;;;;;2.87;1.58;;;16.20;44.50;;;;;;2338895;57;21826;-69
2023/06/03 04:50:14;;;;;;;2.00;1.15;;;16.20;45.60;;;;;;2291319;58;21035;-68
2023/06/03 05:25:39;;;;;;;3.95;1.60;;;16.20;45.80;;;;;;2362996;56;21829;-70
2023/06/03 05:29:34;;;;;;;2.33;1.13;;;16.80;45.40;;;;;;2388635;57;20990;-68
2023/06/03 05:36:40;;;;;;;5.43;1.85;;;16.80;45.80;;;;;;2299154;59;21106;-71
2023/06/03 05:55:38;;;;;;;5.00;1.52;;;16.90;46.30;;;;;;2175660;59;20992;-68
2023/06/03 06:00:09;;;;;;;3.42;1.58;;;17.20;45.70;;;;;;2184274;58;20987;-69
2023/06/03 06:02:51;;;;;;;3.55;1.60;;;17.30;46.40;;;;;;2165201;59;23125;-69
2023/06/03 06:05:39;;;;;;;3.45;1.85;;;17.30;46.40;;;;;;2384806;58;21087;-69
2023/06/03 06:08:06;;;;;;;4.43;2.17;;;17.30;46.50;;;;;;2181027;59;20985;-69
2023/06/03 06:10:39;;;;;;;4.62;2.08;;;17.40;46.40;;;;;;2381757;58;21088;-69
2023/06/03 06:13:34;;;;;;;4.25;1.70;;;17.40;46.50;;;;;;2383667;58;21048;-70
2023/06/03 06:16:09;;;;;;;4.07;1.73;;;17.50;46.70;;;;;;2354587;57;21147;-68
2023/06/03 06:18:44;;;;;;;5.22;2.15;;;17.50;46.70;;;;;;2170334;58;21064;-70
2023/06/03 06:21:14;;;;;;;4.25;1.92;;;17.60;46.80;;;;;;2180475;59;21075;-68
2023/06/03 06:23:43;;;;;;;5.10;2.55;;;17.60;46.90;;;;;;2163896;59;21083;-69
2023/06/03 06:26:13;;;;;;;4.30;2.08;;;17.70;47.00;;;;;;2171563;59;20957;-69
2023/06/03 06:28:51;;;;;;;3.17;1.62;;;17.70;47.10;;;;;;2390994;58;21052;-70
2023/06/03 06:31:17;;;;;;;5.53;2.17;;;17.80;47.30;;;;;;2179896;59;21021;-69
2023/06/03 06:33:47;;;;;;;4.68;2.03;;;17.90;47.10;;;;;;2179560;59;21043;-71
2023/06/03 06:37:44;;;;;;;4.68;2.30;;;17.90;47.10;;;;;;2377737;58;21024;-68
2023/06/03 06:40:20;;;;;;;3.80;1.87;;;18.00;47.40;;;;;;2391404;58;21016;-72
2023/06/03 06:42:46;;;;;;;;;;;18.10;47.20;;;;;;2182674;58;21005;-69
2023/06/03 06:45:27;;;;;;;3.53;1.60;;;18.20;47.30;;;;;;2185024;58;20057;-69
2023/06/03 06:48:12;;;;;;;4.25;1.85;;;18.20;47.20;;;;;;2391304;58;21004;-69
2023/06/03 06:51:38;;;;;;;4.72;2.10;;;18.30;47.40;;;;;;2179514;59;21276;-69
2023/06/03 06:54:05;;;;;;;6.35;2.12;;;18.30;47.40;;;;;;2396347;57;20944;-69
2023/06/03 06:56:32;;;;;;;3.85;1.80;;;18.40;47.10;;;;;;2179766;59;20968;-70
2023/06/03 06:58:59;;;;;;;3.40;2.00;;;18.40;47.10;;;;;;2184609;58;21049;-70
2023/06/03 07:01:25;;;;;;;5.03;1.87;;;18.50;47.20;;;;;;2184420;58;20973;-70
2023/06/03 07:03:52;;;;;;;3.97;2.00;;;18.50;47.30;;;;;;2397344;57;21714;-70
2023/06/03 07:06:18;;;;;;;6.12;1.90;;;18.60;47.40;;;;;;2391757;57;21080;-70
2023/06/03 07:08:44;;;;;;;4.80;2.22;;;18.70;47.40;;;;;;2397825;57;20960;-70
2023/06/03 07:11:11;;;;;;;4.90;2.15;;;18.70;47.40;;;;;;2184608;58;21018;-70
2023/06/03 07:13:38;;;;;;;3.78;1.90;;;18.80;47.40;;;;;;2181718;58;20997;-70
2023/06/03 07:16:10;;;;;;;3.55;1.90;;;18.90;47.50;;;;;;2394115;57;21100;-70
2023/06/03 07:18:36;;;;;;;3.92;1.60;;;18.90;47.40;;;;;;2397659;57;20943;-70
2023/06/03 07:21:03;;;;;;;5.57;2.00;;;19.00;47.50;;;;;;2179055;59;21088;-70
2023/06/03 07:23:30;;;;;;;4.80;2.00;;;19.10;47.50;;;;;;2391202;57;21707;-72
2023/06/03 07:25:59;;;;;;;4.47;1.90;;;19.10;47.60;;;;;;2358437;58;21057;-70
2023/06/03 07:28:30;;;;;;;4.90;2.28;;;19.20;47.70;;;;;;2397376;57;20953;-70
2023/06/03 07:31:04;;;;;;;5.40;1.92;;;19.30;47.60;;;;;;2351272;58;21031;-70
2023/06/03 07:33:44;;;;;;;5.32;2.00;;;19.40;47.60;;;;;;2180959;58;21673;-70
2023/06/03 07:36:11;;;;;;;3.83;1.67;;;19.40;47.50;;;;;;2184850;58;21820;-72
2023/06/03 07:40:08;;;;;;;4.53;1.90;;;19.50;47.50;;;;;;2179824;58;21311;-71
2023/06/03 07:42:36;;;;;;;4.78;1.62;;;19.60;47.70;;;;;;2408211;57;21018;-74
2023/06/03 07:45:02;;;;;;;7.32;1.90;;;19.80;47.50;;;;;;2391169;57;21070;-72
2023/06/03 07:47:29;;;;;;;9.68;2.10;;;19.80;47.50;;;;;;2391323;58;21036;-71
2023/06/03 07:49:58;;;;;;;4.07;2.00;;;19.90;47.50;;;;;;2396562;57;20974;-70
2023/06/03 07:52:25;;;;;;;4.28;1.80;;;20.00;47.50;;;;;;2391168;57;21399;-73
2023/06/03 07:54:54;;;;;;;4.25;1.73;;;20.00;47.40;;;;;;2380140;57;21034;-71
2023/06/03 07:57:21;;;;;;;5.78;2.15;;;20.10;47.40;;;;;;2378917;58;20992;-71
2023/06/03 07:59:56;;;;;;;4.10;2.20;;;20.20;47.40;;;;;;2392252;57;20969;-69
2023/06/03 08:02:24;;;;;;;4.18;1.75;;;20.30;47.40;;;;;;2396189;57;21512;-70
2023/06/03 08:04:53;;;;;;;4.60;1.90;;;20.40;47.40;;;;;;2394506;57;21082;-70
2023/06/03 08:07:19;;;;;;;5.05;2.03;;;20.40;47.40;;;;;;2397221;57;20943;-71
2023/06/03 08:09:46;;;;;;;5.37;2.00;;;20.50;47.30;;;;;;2391289;58;20972;-70
2023/06/03 08:12:12;;;;;;;5.85;1.85;;;20.50;47.30;;;;;;2179963;59;21529;-72
2023/06/03 08:14:39;;;;;;;4.20;1.87;;;20.60;47.40;;;;;;2367000;58;21028;-72
2023/06/03 08:17:15;;;;;;;4.53;1.87;;;20.70;47.40;;;;;;2178681;58;20965;-72
2023/06/03 08:19:44;;;;;;;4.65;1.58;;;20.80;47.40;;;;;;2391149;58;21048;-72
2023/06/03 08:23:11;;;;;;;3.40;1.62;;;20.90;47.40;;;;;;2185344;58;21655;-71
2023/06/03 08:25:37;;;;;;;3.97;1.85;;;21.00;47.70;;;;;;2391311;58;21829;-72
2023/06/03 08:28:04;;;;;;;5.37;2.20;;;21.10;47.60;;;;;;2391096;57;21060;-71
2023/06/03 08:30:31;;;;;;;6.07;2.53;;;21.20;47.70;;;;;;2179443;59;21386;-77
2023/06/03 08:33:00;;;;;;;4.00;1.98;;;21.30;47.60;;;;;;2389730;57;21580;-70
2023/06/03 08:35:26;;;;;;;5.55;2.05;;;21.40;47.70;;;;;;2394706;57;21049;-73
2023/06/03 08:37:56;;;;;;;3.67;1.70;;;21.50;47.50;;;;;;2392149;57;21044;-72
2023/06/03 08:40:25;;;;;;;5.05;2.17;;;21.50;47.30;;;;;;2394678;57;20981;-70
2023/06/03 08:42:53;;;;;;;5.70;2.00;;;21.60;47.10;;;;;;2173395;58;21013;-75
2023/06/03 08:45:34;;;;;;;5.03;2.00;;;21.70;46.90;;;;;;2352637;58;21060;-72
2023/06/03 08:49:20;;;;;;;5.05;2.05;;;21.80;47.00;;;;;;2162279;58;21057;-70
2023/06/03 08:51:53;;;;;;;6.82;2.05;;;21.90;47.10;;;;;;2177716;59;21479;-74
2023/06/03 08:54:31;;;;;;;4.75;1.73;;;22.00;46.90;;;;;;2150969;60;21906;-73
2023/06/03 08:57:42;;;;;;;;;;;;;;;;;;;;;
2023/06/03 09:01:23;;;;;;;;;;;;;;;;;;;;;
2023/06/03 09:04:37;;;;;;;3.72;1.80;;;22.30;46.80;;;;;;2350674;58;21838;-71
2023/06/03 09:08:09;;;;;;;5.32;1.98;;;22.40;46.70;;;;;;2173345;58;21022;-77
2023/06/03 09:12:19;;;;;;;4.28;1.77;;;22.50;46.70;;;;;;2155147;58;21039;-72
2023/06/03 09:20:42;;;;;;;;;;;;;;;;;;;;;
2023/06/03 09:29:40;;;;;;;4.53;2.10;;;23.00;46.30;;;;;;2332423;57;21040;-72
2023/06/03 09:36:05;;;;;;;6.18;1.98;;;23.20;46.20;;;;;;2378246;57;25537;-73
2023/06/03 10:11:45;;;;;;;4.22;1.87;;;23.30;46.00;;;;;;2362289;57;21088;-71
2023/06/03 12:01:35;;;;;;;;;;;;;;;;;;;;;
2023/06/03 12:04:54;;;;;;;3.95;1.83;;;27.00;43.70;;;;;;2358721;57;21020;-72
2023/06/03 12:11:32;;;;;;;3.55;1.75;;;27.10;43.60;;;;;;2364367;57;21051;-71
2023/06/03 12:16:38;;;;;;;4.95;2.17;;;27.30;43.60;;;;;;2307427;59;20963;-72
2023/06/03 12:20:04;;;;;;;;;;;;;;;;;;;;;
2023/06/03 12:27:48;;;;;;;4.00;2.08;;;27.40;43.00;;;;;;2305240;58;21061;-72
2023/06/03 12:50:54;;;;;;;4.05;2.03;;;27.50;43.20;;;;;;2164066;58;21179;-73
2023/06/03 13:08:06;;;;;;;3.95;1.92;;;28.20;42.50;;;;;;2312134;58;21200;-73
2023/06/03 13:28:56;;;;;;;4.68;1.55;;;28.60;41.90;;;;;;2323173;58;21981;-72
2023/06/03 13:33:24;;;;;;;4.47;1.83;;;28.90;41.60;;;;;;2360176;57;21271;-74
2023/06/03 13:40:41;;;;;;;4.78;2.00;;;29.00;41.60;;;;;;2378442;57;21890;-72
2023/06/03 13:55:32;;;;;;;4.60;2.10;;;29.40;40.50;;;;;;2386966;57;21550;-73
2023/06/03 13:58:41;;;;;;;4.43;2.53;;;29.40;40.00;;;;;;2334712;58;21134;-73
2023/06/03 14:01:59;;;;;;;4.15;2.28;;;29.40;39.80;;;;;;2170321;58;22166;-71
2023/06/03 14:05:23;;;;;;;;;;;;;;;;;;;;;
2023/06/03 14:08:19;;;;;;;;;;;;;;;;;;;;;
2023/06/03 14:19:07;;;;;;;4.47;2.33;;;29.60;39.80;;;;;;2117178;61;21498;-76
2023/06/03 14:22:32;;;;;;;4.95;2.58;;;29.70;39.40;;;;;;1849554;60;19054345;-73
2023/06/03 14:44:33;;;;;;;7.65;2.15;;;29.70;39.10;;;;;;2317363;58;21043;-71
2023/06/03 15:08:03;;;;;;;;;;;;;;;;;;;;;
2023/06/03 16:04:06;;;;;;;4.82;2.35;;;30.00;38.30;;;;;;2166430;59;21497;-71
2023/06/03 16:07:48;;;;;;;5.93;3.80;;;29.80;38.00;;;;;;2477683;52;28169;-72
2023/06/03 16:13:52;;;;;;;5.10;2.83;;;29.60;36.70;;;;;;2356797;57;21088;-74
2023/06/03 16:20:12;;;;;;;4.00;1.95;;;29.60;37.30;;;;;;2165943;57;21008;-71
2023/06/03 16:23:08;;;;;;;4.30;2.25;;;29.80;37.50;;;;;;2377636;57;21925;-72
2023/06/03 16:26:53;;;;;;;5.40;2.28;;;29.80;37.00;;;;;;2492498;54;20973;-72
2023/06/03 16:33:15;;;;;;;5.70;2.75;;;29.70;36.90;;;;;;2475984;55;21738;-72
2023/06/03 16:36:04;;;;;;;5.22;2.60;;;29.70;36.80;;;;;;2481730;54;21008;-71
2023/06/03 16:52:55;;;;;;;4.05;1.95;;;29.60;36.50;;;;;;2294087;54;21057;-70
2023/06/03 16:56:18;;;;;;;;;;;;;;;;;;;;;
2023/06/03 17:00:28;;;;;;;;;;;;;;;;;;;;;
2023/06/03 17:03:50;;;;;;;4.43;2.17;;;29.60;36.60;;;;;;2467618;54;21049;-71
2023/06/03 17:17:32;;;;;;;3.67;1.87;;;29.50;36.60;;;;;;2504873;54;21023;-71
2023/06/03 17:22:08;;;;;;;4.28;1.73;;;29.40;36.50;;;;;;2538406;53;21835;-71
2023/06/03 17:25:29;;;;;;;3.55;1.87;;;29.40;36.40;;;;;;2568085;53;21025;-73
2023/06/03 17:29:11;;;;;;;4.07;2.20;;;29.40;36.70;;;;;;2572156;53;21013;-71
2023/06/03 17:38:36;;;;;;;3.55;2.00;;;29.40;36.50;;;;;;2546762;53;21045;-71
2023/06/03 18:28:12;;;;;;;3.30;1.60;;;31.10;35.30;;;;;;2312951;53;21274;-71
2023/06/03 18:31:50;;;;;;;;;;;;;;;;;;;;;
2023/06/03 18:47:41;;;;;;;3.92;1.62;;;30.70;35.50;;;;;;2235286;56;21137;-72
2023/06/03 20:17:52;;;;;;;2.20;0.90;;;28.70;36.00;;;;;;2151942;59;22366;-75
2023/06/03 20:21:17;;;;;;;;;;;;;;;;;;;;;
2023/06/03 21:19:40;;;;;;;2.00;0.90;;;24.70;38.70;;;;;;2371627;56;21030;-72
2023/06/03 21:38:47;;;;;;;1.65;0.85;;;24.10;38.70;;;;;;2256923;60;21645;-73
2023/06/03 22:18:59;;;;;;;1.58;0.73;;;23.40;39.20;;;;;;2405093;56;21006;-71
2023/06/03 22:21:39;;;;;;;2.35;1.27;;;22.70;38.90;;;;;;2421101;56;21003;-73
2023/06/03 22:24:06;;;;;;;2.67;1.20;;;22.70;39.40;;;;;;2185618;57;21079;-72
2023/06/03 22:26:33;;;;;;;4.35;1.85;;;22.50;39.30;;;;;;2398946;56;20969;-73
2023/06/03 22:28:59;;;;;;;3.20;1.83;;;22.50;39.60;;;;;;2394331;56;20965;-71
2023/06/03 22:31:27;;;;;;;3.60;1.80;;;22.40;39.60;;;;;;2181309;56;21009;-72
2023/06/03 22:33:54;;;;;;;4.20;2.00;;;22.30;39.70;;;;;;2181958;56;20949;-73
2023/06/03 22:36:20;;;;;;;3.70;1.92;;;22.20;39.70;;;;;;2393566;56;20973;-71
2023/06/03 22:38:46;;;;;;;3.53;1.70;;;22.20;39.80;;;;;;2420760;56;21051;-72
2023/06/03 22:41:13;;;;;;;3.37;1.50;;;22.10;39.90;;;;;;2427016;56;20946;-72
2023/06/03 22:43:43;;;;;;;3.50;1.70;;;22.00;39.90;;;;;;2443680;56;20971;-73
2023/06/03 22:46:09;;;;;;;3.80;1.70;;;21.90;40.00;;;;;;2221491;56;20951;-72
2023/06/03 22:48:38;;;;;;;4.32;1.70;;;21.90;40.10;;;;;;2213432;56;21527;-72
2023/06/03 22:51:05;;;;;;;3.58;1.87;;;21.90;40.30;;;;;;2427901;56;21055;-72
2023/06/03 22:53:32;;;;;;;3.30;1.70;;;21.80;40.30;;;;;;2210098;56;20978;-72
2023/06/03 22:56:01;;;;;;;3.10;1.65;;;21.70;40.30;;;;;;2427861;56;21014;-71
2023/06/03 22:58:27;;;;;;;3.58;1.50;;;21.70;40.40;;;;;;2210834;56;20990;-73
2023/06/03 23:00:54;;;;;;;3.33;1.80;;;21.60;40.30;;;;;;2220100;56;21099;-72
2023/06/03 23:03:20;;;;;;;3.92;1.83;;;21.50;40.40;;;;;;2434322;56;20978;-71
2023/06/03 23:05:46;;;;;;;3.37;1.62;;;21.50;40.50;;;;;;2209373;56;21086;-72
2023/06/03 23:08:13;;;;;;;4.50;1.83;;;21.40;40.60;;;;;;2209277;56;20986;-73
2023/06/03 23:10:41;;;;;;;3.12;1.67;;;21.40;40.70;;;;;;2437826;56;21060;-72
2023/06/03 23:13:09;;;;;;;3.20;1.87;;;21.30;40.80;;;;;;2433435;56;21041;-72
2023/06/03 23:15:37;;;;;;;3.00;1.65;;;21.30;40.90;;;;;;2426756;56;21050;-70
2023/06/03 23:18:09;;;;;;;3.08;1.60;;;21.20;40.90;;;;;;2427592;56;21027;-72
2023/06/03 23:20:35;;;;;;;3.50;1.60;;;21.20;41.00;;;;;;2427372;56;20962;-71
2023/06/03 23:23:02;;;;;;;2.83;1.60;;;21.10;40.90;;;;;;2209431;56;20967;-73
2023/06/03 23:25:28;;;;;;;3.20;1.62;;;21.00;40.90;;;;;;2431787;56;21012;-70
2023/06/03 23:27:56;;;;;;;3.03;1.62;;;20.90;40.90;;;;;;2438688;56;20958;-72
2023/06/03 23:30:22;;;;;;;3.08;1.77;;;20.90;41.00;;;;;;2427362;56;20949;-71
2023/06/03 23:32:49;;;;;;;4.65;2.00;;;20.80;41.00;;;;;;2427431;56;20954;-72
2023/06/03 23:35:15;;;;;;;3.25;1.50;;;20.80;41.10;;;;;;2427828;56;20951;-70
2023/06/03 23:37:42;;;;;;;3.30;1.73;;;20.80;41.20;;;;;;2209823;56;21045;-70
2023/06/03 23:40:09;;;;;;;4.35;2.35;;;20.70;41.20;;;;;;2210323;56;21053;-71
2023/06/03 23:42:36;;;;;;;3.42;1.85;;;20.60;41.20;;;;;;2427028;56;20953;-70
2023/06/03 23:45:03;;;;;;;4.20;1.75;;;20.60;41.30;;;;;;2427478;56;20986;-71
2023/06/03 23:47:32;;;;;;;3.37;1.65;;;20.50;41.30;;;;;;2208934;56;20928;-72
2023/06/03 23:49:59;;;;;;;3.92;1.65;;;20.60;41.60;;;;;;2427681;56;20942;-72
2023/06/03 23:52:27;;;;;;;3.30;1.80;;;20.50;41.50;;;;;;2427375;56;20966;-71
2023/06/03 23:54:55;;;;;;;3.53;1.77;;;20.50;41.50;;;;;;2210311;56;21441;-73
2023/06/03 23:57:21;;;;;;;3.33;1.80;;;20.40;41.50;;;;;;2205150;57;21502;-72
2023/06/03 23:59:49;;;;;;;4.35;2.05;;;20.40;41.60;;;;;;2209621;56;20979;-72
